createdAt,value
2022-08-03T00:00:26.288Z,21.90
2022-08-03T00:02:54.542Z,21.60
2022-08-03T00:05:21.718Z,21.80
2022-08-03T00:07:49.579Z,21.80
2022-08-03T00:10:16.857Z,21.70
2022-08-03T00:12:43.817Z,21.70
2022-08-03T00:15:16.514Z,21.60
2022-08-03T00:17:52.311Z,21.50
2022-08-03T00:20:21.354Z,21.50
2022-08-03T00:22:48.343Z,21.30
2022-08-03T00:25:15.160Z,21.30
2022-08-03T00:27:41.913Z,21.30
2022-08-03T00:30:09.407Z,21.20
2022-08-03T00:32:36.200Z,21.20
2022-08-03T00:35:09.215Z,21.10
2022-08-03T00:37:41.194Z,21.10
2022-08-03T00:40:10.871Z,21.10
2022-08-03T00:45:13.484Z,21.00
2022-08-03T00:47:40.270Z,21.10
2022-08-03T00:50:07.602Z,21.00
2022-08-03T00:52:34.954Z,20.90
2022-08-03T00:55:03.097Z,20.90
2022-08-03T00:57:31.766Z,20.80
2022-08-03T01:00:00.029Z,20.70
2022-08-03T01:02:27.296Z,20.70
2022-08-03T01:04:54.076Z,20.60
2022-08-03T01:07:28.434Z,20.60
2022-08-03T01:10:03.295Z,20.50
2022-08-03T01:12:38.072Z,20.40
2022-08-03T01:15:11.763Z,20.40
2022-08-03T01:17:50.757Z,20.40
2022-08-03T01:20:20.660Z,20.40
2022-08-03T01:23:20.637Z,20.40
2022-08-03T01:26:03.337Z,20.30
2022-08-03T01:28:48.142Z,20.30
2022-08-03T01:31:21.791Z,20.30
2022-08-03T01:33:56.150Z,20.30
2022-08-03T01:36:26.656Z,20.30
2022-08-03T01:38:58.631Z,20.20
2022-08-03T01:41:31.618Z,20.20
2022-08-03T01:44:29.177Z,20.10
2022-08-03T01:49:18.292Z,20.00
2022-08-03T01:52:03.681Z,20.00
2022-08-03T01:54:34.688Z,20.00
2022-08-03T01:57:03.868Z,19.90
2022-08-03T01:59:32.422Z,19.90
2022-08-03T02:02:29.133Z,19.90
2022-08-03T02:04:50.359Z,19.80
2022-08-03T02:07:18.008Z,19.80
2022-08-03T02:09:49.830Z,19.80
2022-08-03T02:12:17.776Z,19.80
2022-08-03T02:14:47.598Z,19.80
2022-08-03T02:17:16.712Z,19.70
2022-08-03T02:19:44.583Z,19.70
2022-08-03T02:22:13.173Z,19.60
2022-08-03T02:24:40.371Z,19.70
2022-08-03T02:27:14.886Z,19.70
2022-08-03T02:29:44.241Z,19.70
2022-08-03T02:32:17.105Z,19.60
2022-08-03T02:37:13.999Z,19.40
2022-08-03T02:39:42.907Z,19.40
2022-08-03T02:42:12.694Z,19.10
2022-08-03T02:44:43.650Z,19.30
2022-08-03T02:47:11.683Z,19.30
2022-08-03T02:49:50.777Z,19.30
2022-08-03T02:52:21.702Z,19.30
2022-08-03T02:54:52.172Z,19.30
2022-08-03T02:57:21.250Z,19.30
2022-08-03T02:59:49.488Z,19.20
2022-08-03T03:02:18.185Z,19.10
2022-08-03T03:07:52.149Z,19.20
2022-08-03T03:10:21.350Z,19.20
2022-08-03T03:12:51.024Z,19.10
2022-08-03T03:17:46.044Z,18.90
2022-08-03T03:20:14.787Z,18.90
2022-08-03T03:22:45.310Z,18.90
2022-08-03T03:25:12.409Z,18.90
2022-08-03T03:27:39.833Z,18.80
2022-08-03T03:30:07.958Z,18.80
2022-08-03T03:32:36.809Z,18.80
2022-08-03T03:35:05.825Z,18.80
2022-08-03T03:37:32.760Z,18.80
2022-08-03T03:40:01.027Z,18.80
2022-08-03T03:42:27.993Z,18.80
2022-08-03T03:44:54.892Z,18.80
2022-08-03T03:47:32.611Z,18.70
2022-08-03T03:50:00.126Z,18.70
2022-08-03T03:52:26.979Z,18.70
2022-08-03T03:54:57.481Z,18.70
2022-08-03T03:57:29.176Z,18.60
2022-08-03T03:59:55.937Z,18.60
2022-08-03T04:02:22.860Z,18.60
2022-08-03T04:05:08.190Z,18.60
2022-08-03T04:08:02.136Z,18.60
2022-08-03T04:10:50.425Z,18.60
2022-08-03T04:13:20.617Z,18.60
2022-08-03T04:15:48.692Z,18.60
2022-08-03T04:18:16.982Z,18.60
2022-08-03T04:20:47.669Z,18.60
2022-08-03T04:23:16.590Z,18.60
2022-08-03T04:25:45.114Z,18.50
2022-08-03T04:28:30.363Z,18.50
2022-08-03T04:31:01.189Z,18.50
2022-08-03T04:33:31.425Z,18.50
2022-08-03T04:36:03.751Z,18.50
2022-08-03T04:38:32.771Z,18.50
2022-08-03T04:41:00.436Z,18.40
2022-08-03T04:43:28.885Z,18.30
2022-08-03T04:45:57.031Z,18.40
2022-08-03T04:48:25.572Z,18.40
2022-08-03T04:50:53.791Z,18.40
2022-08-03T04:53:21.122Z,18.40
2022-08-03T04:55:48.451Z,18.50
2022-08-03T04:58:15.277Z,18.50
2022-08-03T05:00:42.906Z,18.50
2022-08-03T05:03:19.574Z,18.60
2022-08-03T05:05:53.124Z,18.60
2022-08-03T05:08:29.044Z,18.70
2022-08-03T05:10:58.965Z,18.70
2022-08-03T05:13:26.239Z,18.70
2022-08-03T05:15:53.102Z,18.80
2022-08-03T05:18:20.049Z,18.80
2022-08-03T05:20:46.925Z,18.80
2022-08-03T05:23:15.312Z,18.90
2022-08-03T05:25:49.889Z,19.00
2022-08-03T05:28:17.262Z,19.00
2022-08-03T05:30:44.034Z,19.00
2022-08-03T05:33:11.231Z,19.10
2022-08-03T05:35:56.793Z,19.10
2022-08-03T05:38:28.486Z,19.10
2022-08-03T05:40:57.593Z,19.30
2022-08-03T05:43:43.465Z,19.30
2022-08-03T05:46:12.275Z,19.30
2022-08-03T05:48:40.178Z,19.40
2022-08-03T05:51:10.972Z,19.50
2022-08-03T05:53:39.270Z,19.50
2022-08-03T05:56:15.115Z,19.60
2022-08-03T05:58:43.481Z,19.60
2022-08-03T06:01:10.357Z,19.70
2022-08-03T06:03:37.136Z,19.80
2022-08-03T06:06:04.059Z,19.80
2022-08-03T06:08:30.827Z,19.90
2022-08-03T06:10:58.941Z,19.90
2022-08-03T06:13:25.714Z,20.00
2022-08-03T06:15:52.463Z,20.00
2022-08-03T06:18:19.284Z,20.10
2022-08-03T06:20:47.190Z,20.20
2022-08-03T06:23:18.102Z,20.20
2022-08-03T06:25:45.803Z,20.30
2022-08-03T06:28:42.595Z,20.40
2022-08-03T06:31:01.835Z,20.40
2022-08-03T06:34:34.505Z,20.50
2022-08-03T06:36:15.842Z,20.60
2022-08-03T06:38:42.633Z,20.70
2022-08-03T06:41:10.481Z,20.70
2022-08-03T06:44:03.691Z,20.80
2022-08-03T06:46:25.908Z,20.90
2022-08-03T06:48:53.058Z,20.90
2022-08-03T06:51:19.900Z,21.00
2022-08-03T06:53:46.634Z,21.10
2022-08-03T06:56:13.425Z,21.10
2022-08-03T06:58:41.574Z,21.20
2022-08-03T07:01:08.454Z,21.30
2022-08-03T07:03:35.262Z,21.40
2022-08-03T07:06:02.511Z,21.50
2022-08-03T07:08:34.280Z,21.50
2022-08-03T07:11:01.691Z,21.60
2022-08-03T07:13:28.496Z,21.70
2022-08-03T07:15:56.859Z,21.80
2022-08-03T07:18:29.289Z,21.90
2022-08-03T07:20:56.930Z,22.00
2022-08-03T07:23:23.736Z,22.10
2022-08-03T07:25:50.793Z,22.10
2022-08-03T07:28:18.173Z,22.20
2022-08-03T07:30:45.107Z,22.30
2022-08-03T07:33:13.370Z,22.40
2022-08-03T07:35:40.137Z,22.50
2022-08-03T07:38:06.994Z,22.60
2022-08-03T07:40:33.816Z,22.60
2022-08-03T07:43:03.162Z,22.70
2022-08-03T07:45:30.482Z,22.80
2022-08-03T07:47:57.225Z,22.80
2022-08-03T07:50:25.862Z,22.90
2022-08-03T07:52:53.603Z,23.00
2022-08-03T07:55:21.621Z,23.20
2022-08-03T07:57:59.158Z,23.20
2022-08-03T08:00:25.950Z,23.30
2022-08-03T08:02:52.694Z,23.40
2022-08-03T08:05:19.633Z,23.50
2022-08-03T08:07:51.737Z,23.60
2022-08-03T08:10:18.978Z,23.70
2022-08-03T08:12:46.133Z,23.80
2022-08-03T08:15:13.059Z,23.90
2022-08-03T08:17:44.661Z,24.00
2022-08-03T08:20:15.358Z,24.10
2022-08-03T08:22:47.055Z,24.10
2022-08-03T08:25:13.910Z,24.20
2022-08-03T08:28:29.974Z,24.40
2022-08-03T08:30:33.635Z,24.40
2022-08-03T08:33:02.196Z,24.50
2022-08-03T08:35:29.221Z,24.60
2022-08-03T08:37:59.630Z,24.70
2022-08-03T08:40:32.464Z,24.80
2022-08-03T08:42:59.341Z,24.90
2022-08-03T08:45:26.579Z,25.00
2022-08-03T08:48:01.090Z,25.00
2022-08-03T08:50:30.528Z,25.10
2022-08-03T08:53:03.122Z,25.30
2022-08-03T08:55:58.469Z,25.40
2022-08-03T08:58:21.049Z,25.60
2022-08-03T09:00:48.473Z,25.70
2022-08-03T09:03:28.920Z,25.80
2022-08-03T09:05:58.756Z,25.90
2022-08-03T09:08:26.938Z,26.00
2022-08-03T09:10:53.692Z,26.10
2022-08-03T09:13:20.841Z,26.20
2022-08-03T09:16:00.615Z,26.30
2022-08-03T09:18:32.949Z,26.40
2022-08-03T09:21:30.091Z,26.50
2022-08-03T09:24:03.245Z,26.80
2022-08-03T09:26:32.204Z,26.80
2022-08-03T09:29:05.643Z,27.00
2022-08-03T09:31:38.181Z,27.10
2022-08-03T09:34:07.761Z,27.30
2022-08-03T09:36:36.194Z,27.40
2022-08-03T09:39:06.420Z,27.30
2022-08-03T09:41:33.554Z,27.60
2022-08-03T09:44:00.510Z,27.60
2022-08-03T09:46:31.669Z,27.80
2022-08-03T09:49:12.028Z,27.90
2022-08-03T09:52:31.317Z,28.10
2022-08-03T09:54:28.502Z,28.20
2022-08-03T09:56:55.831Z,28.30
2022-08-03T09:59:27.888Z,28.40
2022-08-03T10:01:55.390Z,28.50
2022-08-03T10:04:23.294Z,28.60
2022-08-03T10:14:45.629Z,28.90
2022-08-03T10:17:12.633Z,28.90
2022-08-03T10:19:39.815Z,29.10
2022-08-03T10:22:11.793Z,29.10
2022-08-03T10:24:46.197Z,29.20
2022-08-03T10:27:14.896Z,29.30
2022-08-03T10:29:47.279Z,29.30
2022-08-03T10:32:25.939Z,29.40
2022-08-03T10:35:00.247Z,29.50
2022-08-03T10:37:32.118Z,29.60
2022-08-03T10:40:00.703Z,29.70
2022-08-03T10:42:31.300Z,29.80
2022-08-03T10:45:05.677Z,29.80
2022-08-03T10:47:34.160Z,30.00
2022-08-03T10:50:01.704Z,30.00
2022-08-03T10:52:32.609Z,30.10
2022-08-03T10:55:20.655Z,30.20
2022-08-03T10:57:58.879Z,30.30
2022-08-03T11:00:27.195Z,30.30
2022-08-03T11:03:10.952Z,30.50
2022-08-03T11:05:41.434Z,30.50
2022-08-03T11:08:22.826Z,30.60
2022-08-03T11:10:53.055Z,30.70
2022-08-03T11:13:22.325Z,30.80
2022-08-03T11:15:51.676Z,30.80
2022-08-03T11:18:19.123Z,31.00
2022-08-03T11:20:47.698Z,31.10
2022-08-03T11:23:15.744Z,31.20
2022-08-03T11:26:12.876Z,31.30
2022-08-03T11:28:41.379Z,31.40
2022-08-03T11:31:50.365Z,31.50
2022-08-03T11:34:17.982Z,31.50
2022-08-03T11:37:23.142Z,31.60
2022-08-03T11:39:53.431Z,31.80
2022-08-03T11:42:45.099Z,31.90
2022-08-03T11:45:12.612Z,32.00
2022-08-03T11:47:50.724Z,32.10
2022-08-03T11:50:19.815Z,32.20
2022-08-03T11:52:47.049Z,32.30
2022-08-03T11:55:16.812Z,32.40
2022-08-03T11:59:01.960Z,32.50
2022-08-03T12:00:34.211Z,32.70
2022-08-03T12:03:06.983Z,32.90
2022-08-03T12:05:51.253Z,33.20
2022-08-03T12:08:29.421Z,33.60
2022-08-03T12:10:59.989Z,34.00
2022-08-03T12:14:44.262Z,34.60
2022-08-03T12:16:25.865Z,35.20
2022-08-03T12:18:56.730Z,35.90
2022-08-03T12:21:24.879Z,36.70
2022-08-03T12:23:56.297Z,37.40
2022-08-03T12:26:23.429Z,38.00
2022-08-03T12:28:51.587Z,38.60
2022-08-03T12:31:18.510Z,39.30
2022-08-03T12:34:03.619Z,39.80
2022-08-03T12:36:32.332Z,40.40
2022-08-03T12:39:01.471Z,40.70
2022-08-03T12:41:29.960Z,41.00
2022-08-03T12:43:59.014Z,41.20
2022-08-03T12:46:32.037Z,41.50
2022-08-03T12:49:07.728Z,41.80
2022-08-03T12:51:36.747Z,42.40
2022-08-03T12:54:04.632Z,42.80
2022-08-03T12:56:31.532Z,43.30
2022-08-03T12:58:59.775Z,43.50
2022-08-03T13:01:28.671Z,43.90
2022-08-03T13:03:55.515Z,43.90
2022-08-03T13:06:24.575Z,44.20
2022-08-03T13:09:02.489Z,44.40
2022-08-03T13:11:53.435Z,44.60
2022-08-03T13:14:19.966Z,44.70
2022-08-03T13:16:47.943Z,44.90
2022-08-03T13:19:15.549Z,45.00
2022-08-03T13:22:01.889Z,45.10
2022-08-03T13:24:30.566Z,45.20
2022-08-03T13:26:58.692Z,45.30
2022-08-03T13:29:26.788Z,45.50
2022-08-03T13:31:53.750Z,45.60
2022-08-03T13:34:23.583Z,45.60
2022-08-03T13:39:58.300Z,45.60
2022-08-03T13:42:25.058Z,45.70
2022-08-03T13:44:53.174Z,45.70
2022-08-03T13:47:20.694Z,45.70
2022-08-03T13:49:55.838Z,45.60
2022-08-03T13:52:29.537Z,45.40
2022-08-03T13:54:56.298Z,45.00
2022-08-03T13:58:04.320Z,44.70
2022-08-03T14:00:12.476Z,44.50
2022-08-03T14:02:39.403Z,44.50
2022-08-03T14:05:06.489Z,44.50
2022-08-03T14:07:33.375Z,44.50
2022-08-03T14:10:01.580Z,44.40
2022-08-03T14:12:28.541Z,44.40
2022-08-03T14:14:58.282Z,44.20
2022-08-03T14:17:42.062Z,44.00
2022-08-03T14:20:36.827Z,44.00
2022-08-03T14:22:59.455Z,44.00
2022-08-03T14:25:26.233Z,43.80
2022-08-03T14:27:53.018Z,43.70
2022-08-03T14:30:19.941Z,43.60
2022-08-03T14:32:48.069Z,43.60
2022-08-03T14:35:14.837Z,43.60
2022-08-03T14:37:41.585Z,43.80
2022-08-03T14:40:09.041Z,43.80
2022-08-03T14:42:35.870Z,44.00
2022-08-03T14:45:07.205Z,44.00
2022-08-03T14:49:02.222Z,44.00
2022-08-03T14:50:38.414Z,44.20
2022-08-03T14:53:07.723Z,44.20
2022-08-03T14:55:38.049Z,44.20
2022-08-03T14:58:19.606Z,44.20
2022-08-03T15:00:48.652Z,44.20
2022-08-03T15:03:16.957Z,44.20
2022-08-03T15:05:45.544Z,44.10
2022-08-03T15:08:12.310Z,44.00
2022-08-03T15:10:43.872Z,43.80
2022-08-03T15:13:11.495Z,43.60
2022-08-03T15:15:38.267Z,43.30
2022-08-03T15:18:05.321Z,43.10
2022-08-03T15:20:42.999Z,43.00
2022-08-03T15:23:12.312Z,43.00
2022-08-03T15:26:29.552Z,42.90
2022-08-03T15:28:25.895Z,42.80
2022-08-03T15:30:53.080Z,42.60
2022-08-03T15:33:20.103Z,42.50
2022-08-03T15:35:47.465Z,42.50
2022-08-03T15:38:15.734Z,42.40
2022-08-03T15:40:42.614Z,42.40
2022-08-03T15:43:09.413Z,42.30
2022-08-03T15:45:36.983Z,42.30
2022-08-03T15:48:04.676Z,42.20
2022-08-03T15:50:31.508Z,42.00
2022-08-03T15:52:58.252Z,41.90
2022-08-03T15:55:26.593Z,41.90
2022-08-03T15:59:10.982Z,41.70
2022-08-03T16:00:41.399Z,41.60
2022-08-03T16:03:08.327Z,41.40
2022-08-03T16:05:35.528Z,41.30
2022-08-03T16:08:04.081Z,41.10
2022-08-03T16:10:33.093Z,41.00
2022-08-03T16:13:00.163Z,41.00
2022-08-03T16:15:27.125Z,40.90
2022-08-03T16:17:53.939Z,40.80
2022-08-03T16:20:31.586Z,40.80
2022-08-03T16:23:11.088Z,40.60
2022-08-03T16:25:40.292Z,40.50
2022-08-03T16:28:13.079Z,40.50
2022-08-03T16:30:42.132Z,40.40
2022-08-03T16:33:09.165Z,40.20
2022-08-03T16:35:36.123Z,40.20
2022-08-03T16:38:07.828Z,40.10
2022-08-03T16:40:36.630Z,40.00
2022-08-03T16:43:17.815Z,39.80
2022-08-03T16:45:46.471Z,39.70
2022-08-03T16:48:13.436Z,39.60
2022-08-03T16:50:40.189Z,39.50
2022-08-03T16:53:09.232Z,39.40
2022-08-03T16:55:48.922Z,39.30
2022-08-03T16:58:34.287Z,39.20
2022-08-03T17:01:20.972Z,39.10
2022-08-03T17:04:01.252Z,39.10
2022-08-03T17:06:34.166Z,39.10
2022-08-03T17:09:03.212Z,39.00
2022-08-03T17:11:30.223Z,39.10
2022-08-03T17:14:01.274Z,39.00
2022-08-03T17:16:30.328Z,38.90
2022-08-03T17:19:02.099Z,38.90
2022-08-03T17:21:30.962Z,38.80
2022-08-03T17:24:12.148Z,38.60
2022-08-03T17:26:44.819Z,38.50
2022-08-03T17:29:16.610Z,38.50
2022-08-03T17:31:49.723Z,38.40
2022-08-03T17:34:17.579Z,38.40
2022-08-03T17:37:04.178Z,38.30
2022-08-03T17:39:56.858Z,38.30
2022-08-03T17:42:31.301Z,38.30
2022-08-03T17:45:01.770Z,38.30
2022-08-03T17:47:41.172Z,38.20
2022-08-03T17:50:25.026Z,38.20
2022-08-03T17:53:07.236Z,38.20
2022-08-03T17:55:55.231Z,38.20
2022-08-03T17:58:35.139Z,38.20
2022-08-03T18:02:00.569Z,38.20
2022-08-03T18:04:12.565Z,38.20
2022-08-03T18:06:56.152Z,38.10
2022-08-03T18:10:06.046Z,38.10
2022-08-03T18:12:18.501Z,38.00
2022-08-03T18:14:57.658Z,37.90
2022-08-03T18:17:54.696Z,37.70
2022-08-03T18:20:32.859Z,37.50
2022-08-03T18:23:05.970Z,37.40
2022-08-03T18:25:42.993Z,37.20
2022-08-03T18:28:15.730Z,37.10
2022-08-03T18:30:53.492Z,36.90
2022-08-03T18:34:17.628Z,36.80
2022-08-03T18:36:18.090Z,36.60
2022-08-03T18:38:51.812Z,36.40
2022-08-03T18:41:32.460Z,35.90
2022-08-03T18:44:07.940Z,35.50
2022-08-03T18:46:49.453Z,35.20
2022-08-03T18:49:29.115Z,35.00
2022-08-03T18:52:04.712Z,34.70
2022-08-03T18:55:02.335Z,34.60
2022-08-03T18:57:39.268Z,34.40
2022-08-03T19:03:02.627Z,33.90
2022-08-03T19:05:57.833Z,33.70
2022-08-03T19:08:36.831Z,33.50
2022-08-03T19:11:07.712Z,33.20
2022-08-03T19:13:41.432Z,33.00
2022-08-03T19:16:20.355Z,32.90
2022-08-03T19:18:50.073Z,32.70
2022-08-03T19:21:18.893Z,32.60
2022-08-03T19:23:48.571Z,32.40
2022-08-03T19:26:30.371Z,32.20
2022-08-03T19:28:58.440Z,32.00
2022-08-03T19:31:30.741Z,31.80
2022-08-03T19:33:59.817Z,31.80
2022-08-03T19:36:29.863Z,31.60
2022-08-03T19:38:57.850Z,31.50
2022-08-03T19:41:27.349Z,31.40
2022-08-03T19:44:01.527Z,31.20
2022-08-03T19:46:37.540Z,31.10
2022-08-03T19:49:14.973Z,30.90
2022-08-03T19:52:01.194Z,30.80
2022-08-03T19:54:39.693Z,30.60
2022-08-03T19:57:22.480Z,30.40
2022-08-03T19:59:50.670Z,30.30
2022-08-03T20:02:26.400Z,30.10
2022-08-03T20:05:15.056Z,30.10
2022-08-03T20:07:47.650Z,29.90
2022-08-03T20:10:15.924Z,29.80
2022-08-03T20:12:44.544Z,29.60
2022-08-03T20:15:11.966Z,29.50
2022-08-03T20:17:56.469Z,29.30
2022-08-03T20:20:27.560Z,29.30
2022-08-03T20:22:58.008Z,29.30
2022-08-03T20:25:38.439Z,29.40
2022-08-03T20:28:14.106Z,29.60
2022-08-03T20:30:43.214Z,29.80
2022-08-03T20:33:10.190Z,30.00
2022-08-03T20:35:37.017Z,30.00
2022-08-03T20:38:06.693Z,30.20
2022-08-03T20:40:33.523Z,30.30
2022-08-03T20:43:01.581Z,30.50
2022-08-03T20:45:59.039Z,30.80
2022-08-03T20:48:17.915Z,31.00
2022-08-03T20:50:48.949Z,31.00
2022-08-03T20:53:57.163Z,31.10
2022-08-03T20:56:08.909Z,31.20
2022-08-03T20:58:36.370Z,31.20
2022-08-03T21:01:03.499Z,31.20
2022-08-03T21:03:40.749Z,31.20
2022-08-03T21:09:14.680Z,31.10
2022-08-03T21:11:48.045Z,31.00
2022-08-03T21:13:00.964Z,34.20
2022-08-03T21:13:08.029Z,31.30
2022-08-03T21:14:19.495Z,31.00
2022-08-03T21:16:50.951Z,31.10
2022-08-03T21:19:20.172Z,31.30
2022-08-03T21:21:49.118Z,31.20
2022-08-03T21:24:19.722Z,31.30
2022-08-03T21:26:49.331Z,31.30
2022-08-03T21:29:17.131Z,31.30
2022-08-03T21:31:44.441Z,31.30
2022-08-03T21:34:11.439Z,31.20
2022-08-03T21:36:38.588Z,31.20
2022-08-03T21:39:08.322Z,31.20
2022-08-03T21:41:38.273Z,31.20
2022-08-03T21:44:06.134Z,31.20
2022-08-03T21:46:38.045Z,31.20
2022-08-03T21:50:05.758Z,31.20
2022-08-03T21:51:59.483Z,31.20
2022-08-03T21:54:33.590Z,31.20
2022-08-03T21:57:05.142Z,31.20
2022-08-03T21:59:39.351Z,31.10
2022-08-03T22:02:20.063Z,30.90
2022-08-03T22:04:55.518Z,30.60
2022-08-03T22:07:24.825Z,30.50
2022-08-03T22:09:52.551Z,30.50
2022-08-03T22:12:23.795Z,30.50
2022-08-03T22:15:00.191Z,30.50
2022-08-03T22:17:55.106Z,30.50
2022-08-03T22:20:16.142Z,30.50
2022-08-03T22:22:54.982Z,30.50
2022-08-03T22:25:27.099Z,30.50
2022-08-03T22:27:55.469Z,30.40
2022-08-03T22:30:22.264Z,30.30
2022-08-03T22:33:11.621Z,30.30
2022-08-03T22:35:47.282Z,30.30
2022-08-03T22:38:15.924Z,30.30
2022-08-03T22:40:44.818Z,30.30
2022-08-03T22:43:16.030Z,30.30
2022-08-03T22:46:07.126Z,30.30
2022-08-03T22:48:34.202Z,30.30
2022-08-03T22:51:02.458Z,30.20
2022-08-03T22:53:29.663Z,30.20
2022-08-03T22:55:57.267Z,30.10
2022-08-03T22:58:25.621Z,30.20
2022-08-03T23:00:54.462Z,30.10
2022-08-03T23:03:24.566Z,30.00
2022-08-03T23:06:00.610Z,30.00
2022-08-03T23:08:33.655Z,30.00
2022-08-03T23:11:05.406Z,30.00
2022-08-03T23:13:34.030Z,29.90
2022-08-03T23:16:03.698Z,29.90
2022-08-03T23:18:37.181Z,29.90
2022-08-03T23:21:06.019Z,29.80
2022-08-03T23:23:44.218Z,29.50
2022-08-03T23:26:13.068Z,29.20
2022-08-03T23:28:45.115Z,28.70
2022-08-03T23:31:14.841Z,28.40
2022-08-03T23:33:44.856Z,28.00
2022-08-03T23:36:31.037Z,27.60
2022-08-03T23:39:01.817Z,27.30
2022-08-03T23:41:31.412Z,27.00
2022-08-03T23:44:04.473Z,26.70
2022-08-03T23:46:32.439Z,26.50
2022-08-03T23:48:59.998Z,26.30
2022-08-03T23:51:38.859Z,26.10
2022-08-03T23:54:13.349Z,25.90
2022-08-03T23:56:50.604Z,25.60
2022-08-03T23:59:27.957Z,25.40
